sensor_id;sensor_type;location;lat;lon;timestamp;temperature;humidity
33077;DHT22;67066;51.964;5.924;2024-02-21T00:02:12;8.30;99.90
33077;DHT22;67066;51.964;5.924;2024-02-21T00:04:38;8.30;99.90
33077;DHT22;67066;51.964;5.924;2024-02-21T00:07:04;8.30;99.90
33077;DHT22;67066;51.964;5.924;2024-02-21T00:09:30;8.30;99.90
33077;DHT22;67066;51.964;5.924;2024-02-21T00:11:56;8.30;99.90
33077;DHT22;67066;51.964;5.924;2024-02-21T00:14:24;8.30;99.90
33077;DHT22;67066;51.964;5.924;2024-02-21T00:16:50;8.30;99.90
33077;DHT22;67066;51.964;5.924;2024-02-21T00:19:16;8.30;99.90
33077;DHT22;67066;51.964;5.924;2024-02-21T00:21:42;8.30;99.90
33077;DHT22;67066;51.964;5.924;2024-02-21T00:24:08;8.30;99.90
33077;DHT22;67066;51.964;5.924;2024-02-21T00:26:34;8.30;99.90
33077;DHT22;67066;51.964;5.924;2024-02-21T00:29:00;8.30;99.90
33077;DHT22;67066;51.964;5.924;2024-02-21T00:31:26;8.30;99.90
33077;DHT22;67066;51.964;5.924;2024-02-21T00:33:52;8.30;99.90
33077;DHT22;67066;51.964;5.924;2024-02-21T00:36:18;8.30;99.90
33077;DHT22;67066;51.964;5.924;2024-02-21T00:38:44;8.30;99.90
33077;DHT22;67066;51.964;5.924;2024-02-21T00:41:11;8.30;99.90
33077;DHT22;67066;51.964;5.924;2024-02-21T00:43:37;8.30;99.90
33077;DHT22;67066;51.964;5.924;2024-02-21T00:46:05;8.30;99.90
33077;DHT22;67066;51.964;5.924;2024-02-21T00:48:31;8.40;99.90
33077;DHT22;67066;51.964;5.924;2024-02-21T00:51:00;8.40;99.90
33077;DHT22;67066;51.964;5.924;2024-02-21T00:53:26;8.40;99.90
33077;DHT22;67066;51.964;5.924;2024-02-21T00:55:52;8.30;99.90
33077;DHT22;67066;51.964;5.924;2024-02-21T00:58:18;8.40;99.90
33077;DHT22;67066;51.964;5.924;2024-02-21T01:00:48;8.30;99.90
33077;DHT22;67066;51.964;5.924;2024-02-21T01:03:17;8.40;99.90
33077;DHT22;67066;51.964;5.924;2024-02-21T01:05:43;8.40;99.90
33077;DHT22;67066;51.964;5.924;2024-02-21T01:08:12;8.40;99.90
33077;DHT22;67066;51.964;5.924;2024-02-21T01:10:43;8.30;99.90
33077;DHT22;67066;51.964;5.924;2024-02-21T01:13:12;8.40;99.90
33077;DHT22;67066;51.964;5.924;2024-02-21T01:15:38;8.30;99.90
33077;DHT22;67066;51.964;5.924;2024-02-21T01:18:04;8.30;99.90
33077;DHT22;67066;51.964;5.924;2024-02-21T01:20:31;8.30;99.90
33077;DHT22;67066;51.964;5.924;2024-02-21T01:22:57;8.30;99.90
33077;DHT22;67066;51.964;5.924;2024-02-21T01:25:23;8.30;99.90
33077;DHT22;67066;51.964;5.924;2024-02-21T01:27:49;8.30;99.90
33077;DHT22;67066;51.964;5.924;2024-02-21T01:30:15;8.30;99.90
33077;DHT22;67066;51.964;5.924;2024-02-21T01:32:41;8.30;99.90
33077;DHT22;67066;51.964;5.924;2024-02-21T01:35:08;8.30;99.90
33077;DHT22;67066;51.964;5.924;2024-02-21T01:37:34;8.30;99.90
33077;DHT22;67066;51.964;5.924;2024-02-21T01:40:00;8.30;99.90
33077;DHT22;67066;51.964;5.924;2024-02-21T01:42:26;8.30;99.90
33077;DHT22;67066;51.964;5.924;2024-02-21T01:44:52;8.30;99.90
33077;DHT22;67066;51.964;5.924;2024-02-21T01:47:18;8.30;99.90
33077;DHT22;67066;51.964;5.924;2024-02-21T01:49:45;8.30;99.90
33077;DHT22;67066;51.964;5.924;2024-02-21T01:52:13;8.30;99.90
33077;DHT22;67066;51.964;5.924;2024-02-21T01:54:41;8.30;99.90
33077;DHT22;67066;51.964;5.924;2024-02-21T01:57:07;8.30;99.90
33077;DHT22;67066;51.964;5.924;2024-02-21T01:59:34;8.30;99.90
33077;DHT22;67066;51.964;5.924;2024-02-21T02:02:02;8.30;99.90
33077;DHT22;67066;51.964;5.924;2024-02-21T02:04:29;8.20;99.90
33077;DHT22;67066;51.964;5.924;2024-02-21T02:06:55;8.30;99.90
33077;DHT22;67066;51.964;5.924;2024-02-21T02:09:21;8.30;99.90
33077;DHT22;67066;51.964;5.924;2024-02-21T02:11:47;8.30;99.90
33077;DHT22;67066;51.964;5.924;2024-02-21T02:14:13;8.30;99.90
33077;DHT22;67066;51.964;5.924;2024-02-21T02:16:40;8.30;99.90
33077;DHT22;67066;51.964;5.924;2024-02-21T02:19:06;8.30;99.90
33077;DHT22;67066;51.964;5.924;2024-02-21T02:21:37;8.30;99.90
33077;DHT22;67066;51.964;5.924;2024-02-21T02:24:05;8.30;99.90
33077;DHT22;67066;51.964;5.924;2024-02-21T02:26:31;8.30;99.90
33077;DHT22;67066;51.964;5.924;2024-02-21T02:28:58;8.30;99.90
33077;DHT22;67066;51.964;5.924;2024-02-21T02:31:24;8.30;99.90
33077;DHT22;67066;51.964;5.924;2024-02-21T02:33:50;8.30;99.90
33077;DHT22;67066;51.964;5.924;2024-02-21T02:36:16;8.30;99.90
33077;DHT22;67066;51.964;5.924;2024-02-21T02:38:43;8.20;99.90
33077;DHT22;67066;51.964;5.924;2024-02-21T02:41:09;8.30;99.90
33077;DHT22;67066;51.964;5.924;2024-02-21T02:43:35;8.20;99.90
33077;DHT22;67066;51.964;5.924;2024-02-21T02:46:02;8.30;99.90
33077;DHT22;67066;51.964;5.924;2024-02-21T02:48:29;8.20;99.90
33077;DHT22;67066;51.964;5.924;2024-02-21T02:50:55;8.20;99.90
33077;DHT22;67066;51.964;5.924;2024-02-21T02:53:21;8.20;99.90
33077;DHT22;67066;51.964;5.924;2024-02-21T02:55:47;8.20;99.90
33077;DHT22;67066;51.964;5.924;2024-02-21T02:58:14;8.20;99.90
33077;DHT22;67066;51.964;5.924;2024-02-21T03:00:40;8.20;99.90
33077;DHT22;67066;51.964;5.924;2024-02-21T03:03:06;8.20;99.90
33077;DHT22;67066;51.964;5.924;2024-02-21T03:05:34;8.20;99.90
33077;DHT22;67066;51.964;5.924;2024-02-21T03:08:00;8.20;99.90
33077;DHT22;67066;51.964;5.924;2024-02-21T03:10:28;8.20;99.90
33077;DHT22;67066;51.964;5.924;2024-02-21T03:12:54;8.20;99.90
33077;DHT22;67066;51.964;5.924;2024-02-21T03:15:35;8.20;99.90
33077;DHT22;67066;51.964;5.924;2024-02-21T03:18:01;8.10;99.90
33077;DHT22;67066;51.964;5.924;2024-02-21T03:20:28;8.20;99.90
33077;DHT22;67066;51.964;5.924;2024-02-21T03:22:59;8.20;99.90
33077;DHT22;67066;51.964;5.924;2024-02-21T03:25:25;8.20;99.90
33077;DHT22;67066;51.964;5.924;2024-02-21T03:27:51;8.20;99.90
33077;DHT22;67066;51.964;5.924;2024-02-21T03:30:18;8.10;99.90
33077;DHT22;67066;51.964;5.924;2024-02-21T03:32:44;8.20;99.90
33077;DHT22;67066;51.964;5.924;2024-02-21T03:35:10;8.20;99.90
33077;DHT22;67066;51.964;5.924;2024-02-21T03:37:36;8.20;99.90
33077;DHT22;67066;51.964;5.924;2024-02-21T03:40:02;8.20;99.90
33077;DHT22;67066;51.964;5.924;2024-02-21T03:42:29;8.10;99.90
33077;DHT22;67066;51.964;5.924;2024-02-21T03:44:57;8.10;99.90
33077;DHT22;67066;51.964;5.924;2024-02-21T03:47:23;8.10;99.90
33077;DHT22;67066;51.964;5.924;2024-02-21T03:49:50;8.20;99.90
33077;DHT22;67066;51.964;5.924;2024-02-21T03:52:16;8.20;99.90
33077;DHT22;67066;51.964;5.924;2024-02-21T03:54:42;8.10;99.90
33077;DHT22;67066;51.964;5.924;2024-02-21T03:57:08;8.10;99.90
33077;DHT22;67066;51.964;5.924;2024-02-21T03:59:34;8.10;99.90
33077;DHT22;67066;51.964;5.924;2024-02-21T04:02:00;8.10;99.90
33077;DHT22;67066;51.964;5.924;2024-02-21T04:04:26;8.10;99.90
33077;DHT22;67066;51.964;5.924;2024-02-21T04:06:53;8.10;99.90
33077;DHT22;67066;51.964;5.924;2024-02-21T04:09:19;8.10;99.90
33077;DHT22;67066;51.964;5.924;2024-02-21T04:11:45;8.20;99.90
33077;DHT22;67066;51.964;5.924;2024-02-21T04:14:11;8.20;99.90
33077;DHT22;67066;51.964;5.924;2024-02-21T04:16:37;8.20;99.90
33077;DHT22;67066;51.964;5.924;2024-02-21T04:19:04;8.10;99.90
33077;DHT22;67066;51.964;5.924;2024-02-21T04:21:30;8.10;99.90
33077;DHT22;67066;51.964;5.924;2024-02-21T04:23:56;8.10;99.90
33077;DHT22;67066;51.964;5.924;2024-02-21T04:26:22;8.10;99.90
33077;DHT22;67066;51.964;5.924;2024-02-21T04:28:48;8.10;99.90
33077;DHT22;67066;51.964;5.924;2024-02-21T04:31:14;8.10;99.90
33077;DHT22;67066;51.964;5.924;2024-02-21T04:33:40;8.10;99.90
33077;DHT22;67066;51.964;5.924;2024-02-21T04:36:06;8.10;99.90
33077;DHT22;67066;51.964;5.924;2024-02-21T04:38:32;8.10;99.90
33077;DHT22;67066;51.964;5.924;2024-02-21T04:40:58;8.10;99.90
33077;DHT22;67066;51.964;5.924;2024-02-21T04:43:25;8.10;99.90
33077;DHT22;67066;51.964;5.924;2024-02-21T04:45:54;8.10;99.90
33077;DHT22;67066;51.964;5.924;2024-02-21T04:48:20;8.10;99.90
33077;DHT22;67066;51.964;5.924;2024-02-21T04:50:46;8.10;99.90
33077;DHT22;67066;51.964;5.924;2024-02-21T04:53:13;8.10;99.90
33077;DHT22;67066;51.964;5.924;2024-02-21T04:55:39;8.10;99.90
33077;DHT22;67066;51.964;5.924;2024-02-21T04:58:05;8.10;99.90
33077;DHT22;67066;51.964;5.924;2024-02-21T05:00:34;8.10;99.90
33077;DHT22;67066;51.964;5.924;2024-02-21T05:03:01;8.10;99.90
33077;DHT22;67066;51.964;5.924;2024-02-21T05:05:27;8.10;99.90
33077;DHT22;67066;51.964;5.924;2024-02-21T05:07:53;8.10;99.90
33077;DHT22;67066;51.964;5.924;2024-02-21T05:10:19;8.10;99.90
33077;DHT22;67066;51.964;5.924;2024-02-21T05:12:46;8.10;99.90
33077;DHT22;67066;51.964;5.924;2024-02-21T05:15:12;8.10;99.90
33077;DHT22;67066;51.964;5.924;2024-02-21T05:17:38;8.10;99.90
33077;DHT22;67066;51.964;5.924;2024-02-21T05:20:05;8.10;99.90
33077;DHT22;67066;51.964;5.924;2024-02-21T05:22:31;8.10;99.90
33077;DHT22;67066;51.964;5.924;2024-02-21T05:24:57;8.10;99.90
33077;DHT22;67066;51.964;5.924;2024-02-21T05:27:23;8.10;99.90
33077;DHT22;67066;51.964;5.924;2024-02-21T05:29:49;8.10;99.90
33077;DHT22;67066;51.964;5.924;2024-02-21T05:32:16;8.10;99.90
33077;DHT22;67066;51.964;5.924;2024-02-21T05:34:42;8.10;99.90
33077;DHT22;67066;51.964;5.924;2024-02-21T05:37:08;8.10;99.90
33077;DHT22;67066;51.964;5.924;2024-02-21T05:39:34;8.10;99.90
33077;DHT22;67066;51.964;5.924;2024-02-21T05:42:00;8.10;99.90
33077;DHT22;67066;51.964;5.924;2024-02-21T05:44:26;8.10;99.90
33077;DHT22;67066;51.964;5.924;2024-02-21T05:46:52;8.10;99.90
33077;DHT22;67066;51.964;5.924;2024-02-21T05:49:18;8.10;99.90
33077;DHT22;67066;51.964;5.924;2024-02-21T05:51:44;8.10;99.90
33077;DHT22;67066;51.964;5.924;2024-02-21T05:54:11;8.10;99.90
33077;DHT22;67066;51.964;5.924;2024-02-21T05:56:37;8.10;99.90
33077;DHT22;67066;51.964;5.924;2024-02-21T05:59:03;8.10;99.90
33077;DHT22;67066;51.964;5.924;2024-02-21T06:01:29;8.10;99.90
33077;DHT22;67066;51.964;5.924;2024-02-21T06:03:55;8.10;99.90
33077;DHT22;67066;51.964;5.924;2024-02-21T06:06:21;8.10;99.90
33077;DHT22;67066;51.964;5.924;2024-02-21T06:08:47;8.00;99.90
33077;DHT22;67066;51.964;5.924;2024-02-21T06:11:13;8.10;99.90
33077;DHT22;67066;51.964;5.924;2024-02-21T06:13:41;8.00;99.90
33077;DHT22;67066;51.964;5.924;2024-02-21T06:16:07;8.10;99.90
33077;DHT22;67066;51.964;5.924;2024-02-21T06:18:35;8.10;99.90
33077;DHT22;67066;51.964;5.924;2024-02-21T06:21:01;8.10;99.90
33077;DHT22;67066;51.964;5.924;2024-02-21T06:23:27;8.10;99.90
33077;DHT22;67066;51.964;5.924;2024-02-21T06:25:53;8.10;99.90
33077;DHT22;67066;51.964;5.924;2024-02-21T06:28:19;8.10;99.90
33077;DHT22;67066;51.964;5.924;2024-02-21T06:30:46;8.10;99.90
33077;DHT22;67066;51.964;5.924;2024-02-21T06:33:12;8.10;99.90
33077;DHT22;67066;51.964;5.924;2024-02-21T06:35:38;8.10;99.90
33077;DHT22;67066;51.964;5.924;2024-02-21T06:38:06;8.10;99.90
33077;DHT22;67066;51.964;5.924;2024-02-21T06:40:33;8.10;99.90
33077;DHT22;67066;51.964;5.924;2024-02-21T06:43:04;8.10;99.90
33077;DHT22;67066;51.964;5.924;2024-02-21T06:45:31;8.10;99.90
33077;DHT22;67066;51.964;5.924;2024-02-21T06:47:57;8.10;99.90
33077;DHT22;67066;51.964;5.924;2024-02-21T06:50:23;8.10;99.90
33077;DHT22;67066;51.964;5.924;2024-02-21T06:52:49;8.20;99.90
33077;DHT22;67066;51.964;5.924;2024-02-21T06:55:15;8.10;99.90
33077;DHT22;67066;51.964;5.924;2024-02-21T06:57:42;8.20;99.90
33077;DHT22;67066;51.964;5.924;2024-02-21T07:00:08;8.20;99.90
33077;DHT22;67066;51.964;5.924;2024-02-21T07:02:34;8.20;99.90
33077;DHT22;67066;51.964;5.924;2024-02-21T07:05:00;8.20;99.90
33077;DHT22;67066;51.964;5.924;2024-02-21T07:07:27;8.20;99.90
33077;DHT22;67066;51.964;5.924;2024-02-21T07:09:53;8.20;99.90
33077;DHT22;67066;51.964;5.924;2024-02-21T07:12:20;8.20;99.90
33077;DHT22;67066;51.964;5.924;2024-02-21T07:14:46;8.20;99.90
33077;DHT22;67066;51.964;5.924;2024-02-21T07:17:12;8.20;99.90
33077;DHT22;67066;51.964;5.924;2024-02-21T07:19:38;8.20;99.90
33077;DHT22;67066;51.964;5.924;2024-02-21T07:22:04;8.20;99.90
33077;DHT22;67066;51.964;5.924;2024-02-21T07:24:30;8.20;99.90
33077;DHT22;67066;51.964;5.924;2024-02-21T07:26:57;8.20;99.90
33077;DHT22;67066;51.964;5.924;2024-02-21T07:29:30;8.20;99.90
33077;DHT22;67066;51.964;5.924;2024-02-21T07:31:56;8.20;99.90
33077;DHT22;67066;51.964;5.924;2024-02-21T07:34:22;8.20;99.90
33077;DHT22;67066;51.964;5.924;2024-02-21T07:36:48;8.20;99.90
33077;DHT22;67066;51.964;5.924;2024-02-21T07:39:14;8.30;99.90
33077;DHT22;67066;51.964;5.924;2024-02-21T07:41:41;8.20;99.90
33077;DHT22;67066;51.964;5.924;2024-02-21T07:44:09;8.20;99.90
33077;DHT22;67066;51.964;5.924;2024-02-21T07:46:35;8.20;99.90
33077;DHT22;67066;51.964;5.924;2024-02-21T07:49:01;8.30;99.90
33077;DHT22;67066;51.964;5.924;2024-02-21T07:51:28;8.30;99.90
33077;DHT22;67066;51.964;5.924;2024-02-21T07:53:54;8.30;99.90
33077;DHT22;67066;51.964;5.924;2024-02-21T07:56:21;8.30;99.90
33077;DHT22;67066;51.964;5.924;2024-02-21T07:58:47;8.30;99.90
33077;DHT22;67066;51.964;5.924;2024-02-21T08:01:19;8.30;99.90
33077;DHT22;67066;51.964;5.924;2024-02-21T08:03:46;8.40;99.90
33077;DHT22;67066;51.964;5.924;2024-02-21T08:06:13;8.40;99.90
33077;DHT22;67066;51.964;5.924;2024-02-21T08:08:39;8.50;99.90
33077;DHT22;67066;51.964;5.924;2024-02-21T08:11:06;8.40;99.90
33077;DHT22;67066;51.964;5.924;2024-02-21T08:13:32;8.50;99.90
33077;DHT22;67066;51.964;5.924;2024-02-21T08:15:58;8.50;99.90
33077;DHT22;67066;51.964;5.924;2024-02-21T08:18:25;8.60;99.90
33077;DHT22;67066;51.964;5.924;2024-02-21T08:20:51;8.60;99.90
33077;DHT22;67066;51.964;5.924;2024-02-21T08:23:18;8.70;99.90
33077;DHT22;67066;51.964;5.924;2024-02-21T08:25:45;8.70;99.90
33077;DHT22;67066;51.964;5.924;2024-02-21T08:28:11;8.70;99.90
33077;DHT22;67066;51.964;5.924;2024-02-21T08:30:37;8.70;99.90
33077;DHT22;67066;51.964;5.924;2024-02-21T08:33:03;8.80;99.90
33077;DHT22;67066;51.964;5.924;2024-02-21T08:35:29;8.80;99.90
33077;DHT22;67066;51.964;5.924;2024-02-21T08:37:55;8.90;99.90
33077;DHT22;67066;51.964;5.924;2024-02-21T08:40:22;8.90;99.90
33077;DHT22;67066;51.964;5.924;2024-02-21T08:42:48;8.90;99.90
33077;DHT22;67066;51.964;5.924;2024-02-21T08:45:15;8.90;99.90
33077;DHT22;67066;51.964;5.924;2024-02-21T08:47:41;8.90;99.90
33077;DHT22;67066;51.964;5.924;2024-02-21T08:50:08;8.90;99.90
33077;DHT22;67066;51.964;5.924;2024-02-21T08:52:37;8.90;99.90
33077;DHT22;67066;51.964;5.924;2024-02-21T08:55:04;8.90;99.90
33077;DHT22;67066;51.964;5.924;2024-02-21T08:57:30;8.90;99.90
33077;DHT22;67066;51.964;5.924;2024-02-21T09:00:04;9.00;99.90
33077;DHT22;67066;51.964;5.924;2024-02-21T09:02:44;9.00;99.90
33077;DHT22;67066;51.964;5.924;2024-02-21T09:05:10;9.00;99.90
33077;DHT22;67066;51.964;5.924;2024-02-21T09:07:36;9.00;99.90
33077;DHT22;67066;51.964;5.924;2024-02-21T09:10:03;9.00;99.90
33077;DHT22;67066;51.964;5.924;2024-02-21T09:12:30;9.00;99.90
33077;DHT22;67066;51.964;5.924;2024-02-21T09:14:56;9.10;99.90
33077;DHT22;67066;51.964;5.924;2024-02-21T09:17:22;9.10;99.90
33077;DHT22;67066;51.964;5.924;2024-02-21T09:19:48;9.10;99.90
33077;DHT22;67066;51.964;5.924;2024-02-21T09:22:14;9.10;99.90
33077;DHT22;67066;51.964;5.924;2024-02-21T09:24:41;9.10;99.90
33077;DHT22;67066;51.964;5.924;2024-02-21T09:27:07;9.10;99.90
33077;DHT22;67066;51.964;5.924;2024-02-21T09:29:33;9.20;99.90
33077;DHT22;67066;51.964;5.924;2024-02-21T09:31:59;9.20;99.90
33077;DHT22;67066;51.964;5.924;2024-02-21T09:34:25;9.20;99.90
33077;DHT22;67066;51.964;5.924;2024-02-21T09:36:52;9.30;99.90
33077;DHT22;67066;51.964;5.924;2024-02-21T09:39:18;9.40;99.90
33077;DHT22;67066;51.964;5.924;2024-02-21T09:41:59;9.40;99.90
33077;DHT22;67066;51.964;5.924;2024-02-21T09:44:30;9.40;99.90
33077;DHT22;67066;51.964;5.924;2024-02-21T09:47:30;9.50;99.90
33077;DHT22;67066;51.964;5.924;2024-02-21T09:50:01;9.50;99.90
33077;DHT22;67066;51.964;5.924;2024-02-21T09:52:29;9.40;99.90
33077;DHT22;67066;51.964;5.924;2024-02-21T09:54:55;9.50;99.90
33077;DHT22;67066;51.964;5.924;2024-02-21T09:57:22;9.50;99.90
33077;DHT22;67066;51.964;5.924;2024-02-21T09:59:48;9.50;99.90
33077;DHT22;67066;51.964;5.924;2024-02-21T10:02:16;9.60;99.90
33077;DHT22;67066;51.964;5.924;2024-02-21T10:04:42;9.70;99.90
33077;DHT22;67066;51.964;5.924;2024-02-21T10:07:08;9.80;99.90
33077;DHT22;67066;51.964;5.924;2024-02-21T10:09:34;9.80;99.90
33077;DHT22;67066;51.964;5.924;2024-02-21T10:12:08;9.80;99.90
33077;DHT22;67066;51.964;5.924;2024-02-21T10:14:35;9.80;99.90
33077;DHT22;67066;51.964;5.924;2024-02-21T10:17:01;9.80;99.90
33077;DHT22;67066;51.964;5.924;2024-02-21T10:19:28;9.90;99.90
33077;DHT22;67066;51.964;5.924;2024-02-21T10:22:06;9.90;99.90
33077;DHT22;67066;51.964;5.924;2024-02-21T10:24:34;10.00;99.90
33077;DHT22;67066;51.964;5.924;2024-02-21T10:27:05;9.90;99.90
33077;DHT22;67066;51.964;5.924;2024-02-21T10:29:34;9.80;99.90
33077;DHT22;67066;51.964;5.924;2024-02-21T10:32:08;9.70;99.90
33077;DHT22;67066;51.964;5.924;2024-02-21T10:34:36;9.60;99.90
33077;DHT22;67066;51.964;5.924;2024-02-21T10:37:02;9.50;99.90
33077;DHT22;67066;51.964;5.924;2024-02-21T10:39:33;9.50;99.90
33077;DHT22;67066;51.964;5.924;2024-02-21T10:42:01;9.40;99.90
33077;DHT22;67066;51.964;5.924;2024-02-21T10:44:32;9.40;99.90
33077;DHT22;67066;51.964;5.924;2024-02-21T10:46:59;9.40;99.90
33077;DHT22;67066;51.964;5.924;2024-02-21T10:49:26;9.30;99.90
33077;DHT22;67066;51.964;5.924;2024-02-21T10:52:06;9.30;99.90
33077;DHT22;67066;51.964;5.924;2024-02-21T10:55:09;9.30;99.90
33077;DHT22;67066;51.964;5.924;2024-02-21T10:57:38;9.30;99.90
33077;DHT22;67066;51.964;5.924;2024-02-21T11:00:05;9.30;99.90
33077;DHT22;67066;51.964;5.924;2024-02-21T11:02:34;9.30;99.90
33077;DHT22;67066;51.964;5.924;2024-02-21T11:05:01;9.30;99.90
33077;DHT22;67066;51.964;5.924;2024-02-21T11:07:30;9.40;99.90
33077;DHT22;67066;51.964;5.924;2024-02-21T11:09:58;9.40;99.90
33077;DHT22;67066;51.964;5.924;2024-02-21T11:12:26;9.40;99.90
33077;DHT22;67066;51.964;5.924;2024-02-21T11:15:04;9.40;99.90
33077;DHT22;67066;51.964;5.924;2024-02-21T11:17:30;9.50;99.90
33077;DHT22;67066;51.964;5.924;2024-02-21T11:19:57;9.50;99.90
33077;DHT22;67066;51.964;5.924;2024-02-21T11:22:28;9.50;99.90
33077;DHT22;67066;51.964;5.924;2024-02-21T11:25:06;9.50;99.90
33077;DHT22;67066;51.964;5.924;2024-02-21T11:27:37;9.50;99.90
33077;DHT22;67066;51.964;5.924;2024-02-21T11:30:05;9.60;99.90
33077;DHT22;67066;51.964;5.924;2024-02-21T11:32:31;9.60;99.90
33077;DHT22;67066;51.964;5.924;2024-02-21T11:35:02;9.60;99.90
33077;DHT22;67066;51.964;5.924;2024-02-21T11:37:30;9.60;99.90
33077;DHT22;67066;51.964;5.924;2024-02-21T11:40:00;9.60;99.90
33077;DHT22;67066;51.964;5.924;2024-02-21T11:42:27;9.60;99.90
33077;DHT22;67066;51.964;5.924;2024-02-21T11:44:53;9.50;99.90
33077;DHT22;67066;51.964;5.924;2024-02-21T11:47:23;9.50;99.90
33077;DHT22;67066;51.964;5.924;2024-02-21T11:49:49;9.50;99.90
33077;DHT22;67066;51.964;5.924;2024-02-21T11:52:26;9.40;99.90
33077;DHT22;67066;51.964;5.924;2024-02-21T11:54:53;9.40;99.90
33077;DHT22;67066;51.964;5.924;2024-02-21T11:57:21;9.50;99.90
33077;DHT22;67066;51.964;5.924;2024-02-21T11:59:47;9.40;99.90
33077;DHT22;67066;51.964;5.924;2024-02-21T12:02:15;9.40;99.90
33077;DHT22;67066;51.964;5.924;2024-02-21T12:04:42;9.40;99.90
33077;DHT22;67066;51.964;5.924;2024-02-21T12:07:09;9.40;99.90
33077;DHT22;67066;51.964;5.924;2024-02-21T12:09:35;9.40;99.90
33077;DHT22;67066;51.964;5.924;2024-02-21T12:12:03;9.30;99.90
33077;DHT22;67066;51.964;5.924;2024-02-21T12:14:32;9.40;99.90
33077;DHT22;67066;51.964;5.924;2024-02-21T12:16:59;9.50;99.90
33077;DHT22;67066;51.964;5.924;2024-02-21T12:19:25;9.60;99.90
33077;DHT22;67066;51.964;5.924;2024-02-21T12:21:52;9.60;99.90
33077;DHT22;67066;51.964;5.924;2024-02-21T12:24:28;9.70;99.90
33077;DHT22;67066;51.964;5.924;2024-02-21T12:26:55;9.80;99.90
33077;DHT22;67066;51.964;5.924;2024-02-21T12:29:23;9.90;99.90
33077;DHT22;67066;51.964;5.924;2024-02-21T12:31:53;10.10;99.90
33077;DHT22;67066;51.964;5.924;2024-02-21T12:34:23;10.30;99.90
33077;DHT22;67066;51.964;5.924;2024-02-21T12:36:50;10.50;99.90
33077;DHT22;67066;51.964;5.924;2024-02-21T12:39:17;10.60;99.90
33077;DHT22;67066;51.964;5.924;2024-02-21T12:41:43;10.60;99.90
33077;DHT22;67066;51.964;5.924;2024-02-21T12:44:10;10.70;99.90
33077;DHT22;67066;51.964;5.924;2024-02-21T12:46:39;10.70;99.90
33077;DHT22;67066;51.964;5.924;2024-02-21T12:49:06;10.70;99.90
33077;DHT22;67066;51.964;5.924;2024-02-21T12:51:34;10.80;99.90
33077;DHT22;67066;51.964;5.924;2024-02-21T12:54:00;10.70;99.90
33077;DHT22;67066;51.964;5.924;2024-02-21T12:56:27;10.70;99.90
33077;DHT22;67066;51.964;5.924;2024-02-21T12:58:53;10.70;99.90
33077;DHT22;67066;51.964;5.924;2024-02-21T13:01:19;10.70;99.90
33077;DHT22;67066;51.964;5.924;2024-02-21T13:03:47;10.60;99.90
33077;DHT22;67066;51.964;5.924;2024-02-21T13:06:13;10.60;99.90
33077;DHT22;67066;51.964;5.924;2024-02-21T13:08:40;10.60;99.90
33077;DHT22;67066;51.964;5.924;2024-02-21T13:11:07;10.60;99.90
33077;DHT22;67066;51.964;5.924;2024-02-21T13:13:33;10.60;99.90
33077;DHT22;67066;51.964;5.924;2024-02-21T13:15:59;10.50;99.90
33077;DHT22;67066;51.964;5.924;2024-02-21T13:18:28;10.50;99.90
33077;DHT22;67066;51.964;5.924;2024-02-21T13:20:54;10.50;99.90
33077;DHT22;67066;51.964;5.924;2024-02-21T13:23:20;10.50;99.90
33077;DHT22;67066;51.964;5.924;2024-02-21T13:25:47;10.50;99.90
33077;DHT22;67066;51.964;5.924;2024-02-21T13:28:13;10.50;99.90
33077;DHT22;67066;51.964;5.924;2024-02-21T13:30:42;10.50;99.90
33077;DHT22;67066;51.964;5.924;2024-02-21T13:33:08;10.50;99.90
33077;DHT22;67066;51.964;5.924;2024-02-21T13:35:35;10.60;99.90
33077;DHT22;67066;51.964;5.924;2024-02-21T13:38:03;10.60;99.90
33077;DHT22;67066;51.964;5.924;2024-02-21T13:40:29;10.60;99.90
33077;DHT22;67066;51.964;5.924;2024-02-21T13:42:55;10.60;99.90
33077;DHT22;67066;51.964;5.924;2024-02-21T13:45:21;10.70;99.90
33077;DHT22;67066;51.964;5.924;2024-02-21T13:47:48;10.70;99.90
33077;DHT22;67066;51.964;5.924;2024-02-21T13:50:14;10.80;99.90
33077;DHT22;67066;51.964;5.924;2024-02-21T13:52:41;10.70;99.90
33077;DHT22;67066;51.964;5.924;2024-02-21T13:55:07;10.70;99.90
33077;DHT22;67066;51.964;5.924;2024-02-21T13:57:37;10.70;99.90
33077;DHT22;67066;51.964;5.924;2024-02-21T14:00:04;10.70;99.90
33077;DHT22;67066;51.964;5.924;2024-02-21T14:02:30;10.70;99.90
33077;DHT22;67066;51.964;5.924;2024-02-21T14:04:57;10.70;99.90
33077;DHT22;67066;51.964;5.924;2024-02-21T14:07:23;10.60;99.90
33077;DHT22;67066;51.964;5.924;2024-02-21T14:09:49;10.70;99.90
33077;DHT22;67066;51.964;5.924;2024-02-21T14:12:15;10.70;99.90
33077;DHT22;67066;51.964;5.924;2024-02-21T14:14:43;10.70;99.90
33077;DHT22;67066;51.964;5.924;2024-02-21T14:17:10;10.70;99.90
33077;DHT22;67066;51.964;5.924;2024-02-21T14:19:36;10.70;99.90
33077;DHT22;67066;51.964;5.924;2024-02-21T14:22:02;10.60;99.90
33077;DHT22;67066;51.964;5.924;2024-02-21T14:24:28;10.60;99.90
33077;DHT22;67066;51.964;5.924;2024-02-21T14:26:54;10.60;99.90
33077;DHT22;67066;51.964;5.924;2024-02-21T14:29:21;10.60;99.90
33077;DHT22;67066;51.964;5.924;2024-02-21T14:31:47;10.50;99.90
33077;DHT22;67066;51.964;5.924;2024-02-21T14:34:13;10.60;99.90
33077;DHT22;67066;51.964;5.924;2024-02-21T14:36:39;10.50;99.90
33077;DHT22;67066;51.964;5.924;2024-02-21T14:39:06;10.50;99.90
33077;DHT22;67066;51.964;5.924;2024-02-21T14:41:32;10.50;99.90
33077;DHT22;67066;51.964;5.924;2024-02-21T14:44:00;10.50;99.90
33077;DHT22;67066;51.964;5.924;2024-02-21T14:46:29;10.50;99.90
33077;DHT22;67066;51.964;5.924;2024-02-21T14:48:55;10.50;99.90
33077;DHT22;67066;51.964;5.924;2024-02-21T14:51:21;10.40;99.90
33077;DHT22;67066;51.964;5.924;2024-02-21T14:53:47;10.40;99.90
33077;DHT22;67066;51.964;5.924;2024-02-21T14:56:14;10.40;99.90
33077;DHT22;67066;51.964;5.924;2024-02-21T14:58:41;10.40;99.90
33077;DHT22;67066;51.964;5.924;2024-02-21T15:01:08;10.40;99.90
33077;DHT22;67066;51.964;5.924;2024-02-21T15:03:34;10.30;99.90
33077;DHT22;67066;51.964;5.924;2024-02-21T15:06:00;10.30;99.90
33077;DHT22;67066;51.964;5.924;2024-02-21T15:08:28;10.30;99.90
33077;DHT22;67066;51.964;5.924;2024-02-21T15:10:54;10.30;99.90
33077;DHT22;67066;51.964;5.924;2024-02-21T15:13:21;10.30;99.90
33077;DHT22;67066;51.964;5.924;2024-02-21T15:15:48;10.20;99.90
33077;DHT22;67066;51.964;5.924;2024-02-21T15:18:17;10.20;99.90
33077;DHT22;67066;51.964;5.924;2024-02-21T15:20:44;10.10;99.90
33077;DHT22;67066;51.964;5.924;2024-02-21T15:23:10;10.10;99.90
33077;DHT22;67066;51.964;5.924;2024-02-21T15:25:36;10.00;99.90
33077;DHT22;67066;51.964;5.924;2024-02-21T15:28:03;10.00;99.90
33077;DHT22;67066;51.964;5.924;2024-02-21T15:30:32;9.90;99.90
33077;DHT22;67066;51.964;5.924;2024-02-21T15:32:59;9.90;99.90
33077;DHT22;67066;51.964;5.924;2024-02-21T15:35:29;9.90;99.90
33077;DHT22;67066;51.964;5.924;2024-02-21T15:37:55;9.80;99.90
33077;DHT22;67066;51.964;5.924;2024-02-21T15:40:22;9.70;99.90
33077;DHT22;67066;51.964;5.924;2024-02-21T15:42:49;9.70;99.90